createdAt,value
2023-03-27T00:01:33.154Z,4.68
2023-03-27T00:04:01.280Z,4.71
2023-03-27T00:06:29.317Z,4.73
2023-03-27T00:08:57.298Z,4.77
2023-03-27T00:11:25.541Z,4.80
2023-03-27T00:13:55.073Z,4.83
2023-03-27T00:16:27.007Z,4.85
2023-03-27T00:18:55.664Z,4.87
2023-03-27T00:21:23.758Z,4.89
2023-03-27T00:23:52.550Z,4.89
2023-03-27T00:26:24.222Z,4.90
2023-03-27T00:28:52.920Z,4.89
2023-03-27T00:31:21.518Z,4.89
2023-03-27T00:33:49.858Z,4.88
2023-03-27T00:36:17.822Z,4.87
2023-03-27T00:38:45.948Z,4.86
2023-03-27T00:41:14.219Z,4.85
2023-03-27T00:43:44.124Z,4.83
2023-03-27T00:46:15.759Z,4.81
2023-03-27T00:48:48.311Z,4.80
2023-03-27T00:51:18.469Z,4.77
2023-03-27T00:53:48.369Z,4.73
2023-03-27T00:56:18.051Z,4.70
2023-03-27T00:58:52.839Z,4.67
2023-03-27T01:01:23.499Z,4.65
2023-03-27T01:03:54.076Z,4.63
2023-03-27T01:06:23.008Z,4.61
2023-03-27T01:08:51.874Z,4.60
2023-03-27T01:11:27.073Z,4.58
2023-03-27T01:14:01.433Z,4.57
2023-03-27T01:16:59.938Z,4.55
2023-03-27T01:19:58.317Z,4.52
2023-03-27T01:23:05.087Z,4.49
2023-03-27T01:25:42.327Z,4.45
2023-03-27T01:28:44.460Z,4.42
2023-03-27T01:31:41.566Z,4.39
2023-03-27T01:34:45.118Z,4.35
2023-03-27T01:37:28.720Z,4.30
2023-03-27T01:40:04.178Z,4.24
2023-03-27T01:42:44.540Z,4.20
2023-03-27T01:45:29.343Z,4.17
2023-03-27T01:48:19.142Z,4.14
2023-03-27T01:50:52.256Z,4.09
2023-03-27T01:53:23.828Z,4.06
2023-03-27T01:55:58.701Z,4.03
2023-03-27T01:58:33.290Z,4.01
2023-03-27T02:01:03.395Z,3.98
2023-03-27T02:03:36.831Z,3.95
2023-03-27T02:06:13.969Z,3.92
2023-03-27T02:08:57.602Z,3.88
2023-03-27T02:11:31.146Z,3.86
2023-03-27T02:14:23.436Z,3.83
2023-03-27T02:16:58.521Z,3.80
2023-03-27T02:19:36.022Z,3.78
2023-03-27T02:22:05.234Z,3.75
2023-03-27T02:24:43.664Z,3.73
2023-03-27T02:27:48.006Z,3.71
2023-03-27T02:30:19.462Z,3.68
2023-03-27T02:32:48.226Z,3.65
2023-03-27T02:35:38.009Z,3.63
2023-03-27T02:38:41.317Z,3.60
2023-03-27T02:41:22.396Z,3.56
2023-03-27T02:44:05.849Z,3.53
2023-03-27T02:47:19.293Z,3.49
2023-03-27T02:49:53.332Z,3.46
2023-03-27T02:52:31.292Z,3.43
2023-03-27T02:55:06.810Z,3.40
2023-03-27T02:57:52.313Z,3.37
2023-03-27T03:00:49.045Z,3.35
2023-03-27T03:03:53.892Z,3.32
2023-03-27T03:06:42.629Z,3.30
2023-03-27T03:09:11.314Z,3.27
2023-03-27T03:11:48.749Z,3.25
2023-03-27T03:14:21.026Z,3.22
2023-03-27T03:16:49.182Z,3.19
2023-03-27T03:19:17.194Z,3.17
2023-03-27T03:21:49.603Z,3.14
2023-03-27T03:24:19.071Z,3.11
2023-03-27T03:26:50.169Z,3.09
2023-03-27T03:29:21.976Z,3.06
2023-03-27T03:32:06.448Z,3.04
2023-03-27T03:34:34.821Z,3.03
2023-03-27T03:37:02.862Z,3.01
2023-03-27T03:39:32.099Z,3.01
2023-03-27T03:42:00.494Z,3.01
2023-03-27T03:44:28.676Z,3.02
2023-03-27T03:46:57.212Z,3.02
2023-03-27T03:49:25.297Z,3.04
2023-03-27T03:52:04.465Z,3.06
2023-03-27T03:54:33.893Z,3.09
2023-03-27T03:57:03.523Z,3.12
2023-03-27T03:59:32.218Z,3.13
2023-03-27T04:02:28.949Z,3.16
2023-03-27T04:05:10.524Z,3.20
2023-03-27T04:07:41.293Z,3.24
2023-03-27T04:10:29.744Z,3.28
2023-03-27T04:12:59.797Z,3.32
2023-03-27T04:15:33.497Z,3.36
2023-03-27T04:18:10.593Z,3.42
2023-03-27T04:20:39.051Z,3.46
2023-03-27T04:23:09.991Z,3.51
2023-03-27T04:25:40.466Z,3.55
2023-03-27T04:28:10.412Z,3.59
2023-03-27T04:30:44.474Z,3.63
2023-03-27T04:33:19.320Z,3.66
2023-03-27T04:36:05.955Z,3.71
2023-03-27T04:38:55.735Z,3.75
2023-03-27T04:41:24.106Z,3.78
2023-03-27T04:43:52.055Z,3.80
2023-03-27T04:46:20.105Z,3.81
2023-03-27T04:48:52.225Z,3.82
2023-03-27T04:51:32.426Z,3.84
2023-03-27T04:54:04.966Z,3.86
2023-03-27T04:56:36.649Z,3.87
2023-03-27T04:59:06.157Z,3.88
2023-03-27T05:01:34.220Z,3.89
2023-03-27T05:04:05.134Z,3.91
2023-03-27T05:06:49.507Z,3.92
2023-03-27T05:09:18.183Z,3.94
2023-03-27T05:11:49.750Z,3.97
2023-03-27T05:14:20.044Z,3.98
2023-03-27T05:16:52.477Z,4.00
2023-03-27T05:19:21.097Z,4.03
2023-03-27T05:21:57.003Z,4.05
2023-03-27T05:24:25.109Z,4.07
2023-03-27T05:26:54.383Z,4.10
2023-03-27T05:29:22.488Z,4.12
2023-03-27T05:31:58.138Z,4.16
2023-03-27T05:34:56.643Z,4.19
2023-03-27T05:37:27.460Z,4.22
2023-03-27T05:40:22.295Z,4.25
2023-03-27T05:42:51.509Z,4.29
2023-03-27T05:45:19.863Z,4.32
2023-03-27T05:47:53.779Z,4.35
2023-03-27T05:50:25.480Z,4.38
2023-03-27T05:52:59.435Z,4.41
2023-03-27T05:55:37.236Z,4.45
2023-03-27T05:58:10.282Z,4.50
2023-03-27T06:00:42.278Z,4.55
2023-03-27T06:03:12.850Z,4.60
2023-03-27T06:06:12.457Z,4.65
2023-03-27T06:08:42.470Z,4.71
2023-03-27T06:11:12.048Z,4.75
2023-03-27T06:13:46.467Z,4.79
2023-03-27T06:16:21.184Z,4.83
2023-03-27T06:18:52.448Z,4.84
2023-03-27T06:21:22.627Z,4.84
2023-03-27T06:23:51.247Z,4.86
2023-03-27T06:26:20.144Z,4.87
2023-03-27T06:28:48.695Z,4.89
2023-03-27T06:31:17.716Z,4.92
2023-03-27T06:34:03.527Z,4.95
2023-03-27T06:36:43.170Z,4.99
2023-03-27T06:39:12.443Z,5.01
2023-03-27T06:41:43.279Z,5.04
2023-03-27T06:44:19.255Z,5.06
2023-03-27T06:47:14.288Z,5.10
2023-03-27T06:50:07.692Z,5.15
2023-03-27T06:52:37.161Z,5.21
2023-03-27T06:55:19.097Z,5.26
2023-03-27T06:57:55.210Z,5.29
2023-03-27T07:00:29.223Z,5.32
2023-03-27T07:03:15.912Z,5.35
2023-03-27T07:05:55.772Z,5.39
2023-03-27T07:08:27.139Z,5.45
2023-03-27T07:11:10.772Z,5.51
2023-03-27T07:13:42.629Z,5.58
2023-03-27T07:16:17.407Z,5.64
2023-03-27T07:18:46.210Z,5.69
2023-03-27T07:21:16.074Z,5.76
2023-03-27T07:23:45.828Z,5.85
2023-03-27T07:26:17.362Z,5.94
2023-03-27T07:29:00.827Z,6.05
2023-03-27T07:31:50.969Z,6.15
2023-03-27T07:34:18.027Z,6.21
2023-03-27T07:37:16.104Z,6.26
2023-03-27T07:40:07.084Z,6.29
2023-03-27T07:42:35.489Z,6.31
2023-03-27T07:45:07.122Z,6.32
2023-03-27T07:47:37.954Z,6.35
2023-03-27T07:50:11.412Z,6.37
2023-03-27T07:52:45.062Z,6.38
2023-03-27T07:55:18.303Z,6.39
2023-03-27T07:58:02.460Z,6.39
2023-03-27T08:00:35.498Z,6.39
2023-03-27T08:03:15.028Z,6.36
2023-03-27T08:05:53.090Z,6.35
2023-03-27T08:08:21.192Z,6.35
2023-03-27T08:10:57.779Z,6.35
2023-03-27T08:13:28.092Z,6.34
2023-03-27T08:16:19.801Z,6.35
2023-03-27T08:18:49.911Z,6.36
2023-03-27T08:21:18.660Z,6.39
2023-03-27T08:23:49.644Z,6.41
2023-03-27T08:26:36.477Z,6.42
2023-03-27T08:29:08.399Z,6.43
2023-03-27T08:31:36.747Z,6.43
2023-03-27T08:34:06.433Z,6.44
2023-03-27T08:36:42.361Z,6.43
2023-03-27T08:39:11.250Z,6.46
2023-03-27T08:41:55.336Z,6.48
2023-03-27T08:44:31.349Z,6.49
2023-03-27T08:47:18.738Z,6.49
2023-03-27T08:50:22.363Z,6.46
2023-03-27T08:52:54.080Z,6.42
2023-03-27T08:55:40.519Z,6.37
2023-03-27T08:58:21.768Z,6.32
2023-03-27T09:01:04.610Z,6.30
2023-03-27T09:03:41.423Z,6.27
2023-03-27T09:06:16.932Z,6.25
2023-03-27T09:08:57.150Z,6.22
2023-03-27T09:11:45.016Z,6.20
2023-03-27T09:14:26.143Z,6.17
2023-03-27T09:16:57.116Z,6.13
2023-03-27T09:19:56.292Z,6.09
2023-03-27T09:22:41.033Z,6.06
2023-03-27T09:25:24.189Z,6.02
2023-03-27T09:28:24.249Z,5.97
2023-03-27T09:31:17.353Z,5.93
2023-03-27T09:33:45.585Z,5.89
2023-03-27T09:36:13.994Z,5.87
2023-03-27T09:38:46.567Z,5.84
2023-03-27T09:41:22.880Z,5.81
2023-03-27T09:44:03.897Z,5.79
2023-03-27T09:46:36.638Z,5.78
2023-03-27T09:49:17.406Z,5.79
2023-03-27T09:51:58.300Z,5.79
2023-03-27T09:54:53.523Z,5.77
2023-03-27T09:57:32.325Z,5.76
2023-03-27T10:00:15.660Z,5.74
2023-03-27T10:02:48.745Z,5.70
2023-03-27T10:05:22.352Z,5.68
2023-03-27T10:07:54.816Z,5.68
2023-03-27T10:10:32.772Z,5.66
2023-03-27T10:13:11.922Z,5.64
2023-03-27T10:15:44.995Z,5.62
2023-03-27T10:18:25.284Z,5.58
2023-03-27T10:20:57.121Z,5.57
2023-03-27T10:23:30.048Z,5.56
2023-03-27T10:26:00.987Z,5.57
2023-03-27T10:28:46.739Z,5.59
2023-03-27T10:31:30.669Z,5.60
2023-03-27T10:34:36.756Z,5.58
2023-03-27T10:37:32.332Z,5.57
2023-03-27T10:40:33.201Z,5.57
2023-03-27T10:43:12.943Z,5.55
2023-03-27T10:45:54.428Z,5.53
2023-03-27T10:48:38.142Z,5.51
2023-03-27T10:51:39.426Z,5.50
2023-03-27T10:54:26.794Z,5.49
2023-03-27T10:57:04.370Z,5.49
2023-03-27T10:59:53.996Z,5.50
2023-03-27T11:02:38.722Z,5.55
2023-03-27T11:05:23.905Z,5.63
2023-03-27T11:08:03.151Z,5.75
2023-03-27T11:10:36.756Z,5.88
2023-03-27T11:13:14.810Z,5.98
2023-03-27T11:15:49.605Z,6.08
2023-03-27T11:18:45.711Z,6.16
2023-03-27T11:21:20.060Z,6.21
2023-03-27T11:23:58.725Z,6.24
2023-03-27T11:26:36.925Z,6.27
2023-03-27T11:29:21.466Z,6.31
2023-03-27T11:31:54.746Z,6.41
2023-03-27T11:34:40.918Z,6.50
2023-03-27T11:37:54.300Z,6.56
2023-03-27T11:40:35.384Z,6.57
2023-03-27T11:43:04.120Z,6.56
2023-03-27T11:45:44.968Z,6.56
2023-03-27T11:48:22.795Z,6.55
2023-03-27T11:50:58.665Z,6.55
2023-03-27T11:54:05.879Z,6.58
2023-03-27T11:56:59.401Z,6.70
2023-03-27T12:00:06.929Z,6.82
2023-03-27T12:03:02.657Z,6.90
2023-03-27T12:05:43.110Z,6.94
2023-03-27T12:08:17.015Z,6.93
2023-03-27T12:10:49.833Z,6.91
2023-03-27T12:13:42.766Z,6.89
2023-03-27T12:16:37.870Z,6.87
2023-03-27T12:19:28.567Z,6.83
2023-03-27T12:22:52.235Z,6.81
2023-03-27T12:25:49.659Z,6.74
2023-03-27T12:28:53.339Z,6.67
2023-03-27T12:31:45.288Z,6.63
2023-03-27T12:34:26.062Z,6.58
2023-03-27T12:36:54.616Z,6.54
2023-03-27T12:39:28.898Z,6.51
2023-03-27T12:42:13.200Z,6.48
2023-03-27T12:45:05.756Z,6.49
2023-03-27T12:47:33.965Z,6.52
2023-03-27T12:50:19.517Z,6.57
2023-03-27T12:52:47.824Z,6.60
2023-03-27T12:55:19.025Z,6.63
2023-03-27T12:57:53.949Z,6.64
2023-03-27T13:00:40.879Z,6.65
2023-03-27T13:04:08.036Z,6.65
2023-03-27T13:06:44.854Z,6.66
2023-03-27T13:09:49.259Z,6.68
2023-03-27T13:12:37.431Z,6.71
2023-03-27T13:15:31.758Z,6.73
2023-03-27T13:18:45.817Z,6.74
2023-03-27T13:21:42.515Z,6.74
2023-03-27T13:24:45.015Z,6.73
2023-03-27T13:27:53.274Z,6.72
2023-03-27T13:30:47.274Z,6.70
2023-03-27T13:34:41.323Z,6.65
2023-03-27T13:37:16.384Z,6.58
2023-03-27T13:39:56.271Z,6.53
2023-03-27T13:42:35.527Z,6.47
2023-03-27T13:45:22.182Z,6.40
2023-03-27T13:48:43.706Z,6.33
2023-03-27T13:51:24.664Z,6.28
2023-03-27T13:54:06.938Z,6.25
2023-03-27T13:56:52.590Z,6.22
2023-03-27T13:59:49.424Z,6.21
2023-03-27T14:02:40.750Z,6.20
2023-03-27T14:05:18.087Z,6.20
2023-03-27T14:08:06.059Z,6.21
2023-03-27T14:11:32.269Z,6.23
2023-03-27T14:14:23.871Z,6.24
2023-03-27T14:17:02.199Z,6.24
2023-03-27T14:19:51.861Z,6.23
2023-03-27T14:22:28.177Z,6.21
2023-03-27T14:25:02.933Z,6.19
2023-03-27T14:27:56.040Z,6.19
2023-03-27T14:30:32.796Z,6.19
2023-03-27T14:33:24.917Z,6.19
2023-03-27T14:36:04.074Z,6.17
2023-03-27T14:38:37.399Z,6.12
2023-03-27T14:41:17.644Z,6.04
2023-03-27T14:43:52.631Z,5.91
2023-03-27T14:46:24.644Z,5.80
2023-03-27T14:48:58.176Z,5.71
2023-03-27T14:51:38.118Z,5.59
2023-03-27T14:54:14.080Z,5.48
2023-03-27T14:56:51.647Z,5.39
2023-03-27T14:59:40.321Z,5.33
2023-03-27T15:02:23.689Z,5.26
2023-03-27T15:04:58.288Z,5.19
2023-03-27T15:07:30.809Z,5.14
2023-03-27T15:10:24.437Z,5.08
2023-03-27T15:13:35.527Z,5.02
2023-03-27T15:16:06.884Z,4.98
2023-03-27T15:19:12.553Z,4.96
2023-03-27T15:22:00.594Z,4.94
2023-03-27T15:24:37.240Z,4.94
2023-03-27T15:27:10.086Z,4.93
2023-03-27T15:29:43.263Z,4.92
2023-03-27T15:32:15.037Z,4.90
2023-03-27T15:35:05.570Z,4.89
2023-03-27T15:37:35.079Z,4.87
2023-03-27T15:40:15.778Z,4.84
2023-03-27T15:42:47.134Z,4.82
2023-03-27T15:45:17.460Z,4.81
2023-03-27T15:48:01.258Z,4.79
2023-03-27T15:50:29.634Z,4.78
2023-03-27T15:53:01.699Z,4.78
2023-03-27T15:55:37.934Z,4.78
2023-03-27T15:58:29.840Z,4.78
2023-03-27T16:01:01.142Z,4.77
2023-03-27T16:03:35.176Z,4.74
2023-03-27T16:06:05.108Z,4.72
2023-03-27T16:08:41.678Z,4.70
2023-03-27T16:11:11.221Z,4.68
2023-03-27T16:13:56.178Z,4.66
2023-03-27T16:16:27.418Z,4.64
2023-03-27T16:18:59.979Z,4.62
2023-03-27T16:21:34.181Z,4.61
2023-03-27T16:24:04.114Z,4.59
2023-03-27T16:26:32.872Z,4.58
2023-03-27T16:29:04.711Z,4.55
2023-03-27T16:31:33.033Z,4.51
2023-03-27T16:34:01.389Z,4.48
2023-03-27T16:36:31.922Z,4.44
2023-03-27T16:39:07.125Z,4.41
2023-03-27T16:41:35.468Z,4.38
2023-03-27T16:44:03.987Z,4.34
2023-03-27T16:46:32.911Z,4.29
2023-03-27T16:49:01.084Z,4.23
2023-03-27T16:51:30.075Z,4.17
2023-03-27T16:53:57.955Z,4.10
2023-03-27T16:56:26.566Z,4.04
2023-03-27T16:58:55.358Z,3.99
2023-03-27T17:01:26.224Z,3.96
2023-03-27T17:03:54.464Z,3.92
2023-03-27T17:06:22.948Z,3.88
2023-03-27T17:08:55.962Z,3.82
2023-03-27T17:11:24.953Z,3.77
2023-03-27T17:13:53.906Z,3.72
2023-03-27T17:16:22.184Z,3.66
2023-03-27T17:18:51.936Z,3.60
2023-03-27T17:21:24.977Z,3.55
2023-03-27T17:23:55.124Z,3.50
2023-03-27T17:26:25.510Z,3.48
2023-03-27T17:28:55.556Z,3.47
2023-03-27T17:31:25.034Z,3.46
2023-03-27T17:33:53.170Z,3.44
2023-03-27T17:36:33.110Z,3.41
2023-03-27T17:39:08.169Z,3.37
2023-03-27T17:41:36.405Z,3.31
2023-03-27T17:44:06.197Z,3.23
2023-03-27T17:46:36.597Z,3.14
2023-03-27T17:49:05.352Z,3.05
2023-03-27T17:51:35.445Z,2.98
2023-03-27T17:54:04.879Z,2.94
2023-03-27T17:56:33.069Z,2.92
2023-03-27T17:59:01.165Z,2.88
2023-03-27T18:01:29.269Z,2.85
2023-03-27T18:04:00.562Z,2.83
2023-03-27T18:06:28.731Z,2.80
2023-03-27T18:08:57.175Z,2.78
2023-03-27T18:11:26.043Z,2.77
2023-03-27T18:13:54.125Z,2.75
2023-03-27T18:16:23.224Z,2.73
2023-03-27T18:18:54.327Z,2.71
2023-03-27T18:21:22.392Z,2.69
2023-03-27T18:23:53.337Z,2.68
2023-03-27T18:26:21.912Z,2.66
2023-03-27T18:28:49.799Z,2.65
2023-03-27T18:31:18.336Z,2.63
2023-03-27T18:33:46.564Z,2.62
2023-03-27T18:36:17.079Z,2.59
2023-03-27T18:38:46.298Z,2.56
2023-03-27T18:41:15.684Z,2.52
2023-03-27T18:43:43.576Z,2.50
2023-03-27T18:46:17.012Z,2.49
2023-03-27T18:48:48.703Z,2.46
2023-03-27T18:51:19.921Z,2.43
2023-03-27T18:53:50.624Z,2.40
2023-03-27T18:56:18.755Z,2.37
2023-03-27T18:58:47.641Z,2.34
2023-03-27T19:01:16.107Z,2.32
2023-03-27T19:03:47.517Z,2.31
2023-03-27T19:06:18.384Z,2.28
2023-03-27T19:08:46.563Z,2.25
2023-03-27T19:11:14.560Z,2.23
2023-03-27T19:14:01.745Z,2.20
2023-03-27T19:16:44.824Z,2.20
2023-03-27T19:19:32.184Z,2.17
2023-03-27T19:22:18.901Z,2.13
2023-03-27T19:24:52.162Z,2.10
2023-03-27T19:27:23.675Z,2.07
2023-03-27T19:29:54.113Z,2.04
2023-03-27T19:32:24.274Z,2.00
2023-03-27T19:34:52.554Z,1.96
2023-03-27T19:37:20.778Z,1.89
2023-03-27T19:39:50.993Z,1.84
2023-03-27T19:42:19.855Z,1.80
2023-03-27T19:44:48.114Z,1.76
2023-03-27T19:47:16.335Z,1.73
2023-03-27T19:49:44.329Z,1.69
2023-03-27T19:52:20.143Z,1.66
2023-03-27T19:54:48.111Z,1.62
2023-03-27T19:57:16.298Z,1.60
2023-03-27T19:59:44.633Z,1.57
2023-03-27T20:02:13.317Z,1.54
2023-03-27T20:04:41.628Z,1.50
2023-03-27T20:07:10.443Z,1.45
2023-03-27T20:09:38.700Z,1.43
2023-03-27T20:12:07.066Z,1.41
2023-03-27T20:14:35.433Z,1.38
2023-03-27T20:17:05.023Z,1.35
2023-03-27T20:19:34.922Z,1.32
2023-03-27T20:22:05.248Z,1.29
2023-03-27T20:24:33.233Z,1.26
2023-03-27T20:27:02.235Z,1.23
2023-03-27T20:29:30.776Z,1.20
2023-03-27T20:31:58.824Z,1.17
2023-03-27T20:34:26.983Z,1.15
2023-03-27T20:36:59.249Z,1.13
2023-03-27T20:39:38.927Z,1.12
2023-03-27T20:42:07.844Z,1.10
2023-03-27T20:44:35.857Z,1.07
2023-03-27T20:47:12.361Z,1.06
2023-03-27T20:49:44.132Z,1.02
2023-03-27T20:52:15.588Z,0.99
2023-03-27T20:54:43.800Z,0.95
2023-03-27T20:57:13.012Z,0.92
2023-03-27T20:59:41.196Z,0.91
2023-03-27T21:02:16.618Z,0.89
2023-03-27T21:04:45.231Z,0.86
2023-03-27T21:07:13.561Z,0.84
2023-03-27T21:09:42.996Z,0.83
2023-03-27T21:12:11.251Z,0.80
2023-03-27T21:14:39.226Z,0.78
2023-03-27T21:17:07.189Z,0.77
2023-03-27T21:19:35.502Z,0.75
2023-03-27T21:22:03.418Z,0.74
2023-03-27T21:24:31.608Z,0.72
2023-03-27T21:27:00.316Z,0.70
2023-03-27T21:29:28.286Z,0.69
2023-03-27T21:31:56.289Z,0.67
2023-03-27T21:34:24.814Z,0.65
2023-03-27T21:36:52.797Z,0.63
2023-03-27T21:39:21.394Z,0.61
2023-03-27T21:41:49.532Z,0.59
2023-03-27T21:44:17.511Z,0.57
2023-03-27T21:46:45.832Z,0.55
2023-03-27T21:49:13.968Z,0.53
2023-03-27T21:51:41.969Z,0.52
2023-03-27T21:54:10.038Z,0.50
2023-03-27T21:56:38.161Z,0.49
2023-03-27T21:59:06.052Z,0.48
2023-03-27T22:01:34.078Z,0.47
2023-03-27T22:04:02.520Z,0.46
2023-03-27T22:06:30.500Z,0.45
2023-03-27T22:08:58.535Z,0.43
2023-03-27T22:11:26.729Z,0.41
2023-03-27T22:13:54.971Z,0.41
2023-03-27T22:16:23.129Z,0.50
2023-03-27T22:18:51.319Z,0.45
2023-03-27T22:21:25.414Z,0.39
2023-03-27T22:23:55.191Z,0.37
2023-03-27T22:26:26.815Z,0.36
2023-03-27T22:28:55.015Z,0.34
2023-03-27T22:31:24.549Z,0.32
2023-03-27T22:33:53.228Z,0.30
2023-03-27T22:36:21.850Z,0.25
2023-03-27T22:38:50.173Z,0.17
2023-03-27T22:41:18.241Z,0.11
2023-03-27T22:43:49.279Z,0.06
2023-03-27T22:46:20.561Z,0.04
2023-03-27T22:48:56.514Z,0.00
2023-03-27T22:51:25.574Z,-0.04
2023-03-27T22:53:53.642Z,-0.09
2023-03-27T22:56:21.687Z,-0.12
2023-03-27T22:58:50.118Z,-0.16
2023-03-27T23:01:18.655Z,-0.22
2023-03-27T23:03:47.001Z,-0.26
2023-03-27T23:06:24.357Z,-0.29
2023-03-27T23:08:52.640Z,-0.32
2023-03-27T23:11:20.696Z,-0.34
2023-03-27T23:13:49.087Z,-0.35
2023-03-27T23:16:17.063Z,-0.35
2023-03-27T23:18:45.089Z,-0.34
2023-03-27T23:21:16.917Z,-0.34
2023-03-27T23:23:45.510Z,-0.34
2023-03-27T23:26:13.788Z,-0.35
2023-03-27T23:28:42.700Z,-0.36
2023-03-27T23:31:20.245Z,-0.37
2023-03-27T23:33:50.908Z,-0.39
2023-03-27T23:36:21.715Z,-0.41
2023-03-27T23:38:51.716Z,-0.40
2023-03-27T23:41:20.710Z,-0.41
2023-03-27T23:43:49.311Z,-0.43
2023-03-27T23:46:17.792Z,-0.45
2023-03-27T23:48:46.172Z,-0.45
2023-03-27T23:51:16.168Z,-0.47
2023-03-27T23:53:44.639Z,-0.49
2023-03-27T23:56:13.089Z,-0.49
2023-03-27T23:58:41.301Z,-0.50
